Time;durP1;ratioP1;P1;durP2;ratioP2;P2;SDS_P1;SDS_P2;PMS_P1;PMS_P2;Temp;Humidity;BMP_temperature;BMP_pressure;BME280_temperature;BME280_humidity;BME280_pressure;Samples;Min_cycle;Max_cycle;Signal;HPM_P1;HPM_P2
2022/01/29 00:00:11;;;;;;;7.03;5.00;;;;;;;4.69;56.57;102039.66;2570921;23;20158;-72
2022/01/29 00:01:11;;;;;;;7.95;5.43;;;;;;;4.98;56.47;102056.38;2570022;23;20159;-72
2022/01/29 00:02:12;;;;;;;7.57;4.80;;;;;;;4.44;56.97;101991.63;2570478;23;20213;-72
2022/01/29 00:03:13;;;;;;;7.17;4.90;;;;;;;4.22;56.67;101943.72;2570882;23;20151;-72
2022/01/29 00:04:16;;;;;;;8.87;4.90;;;;;;;4.55;56.85;101998.16;2570937;23;20155;-72
2022/01/29 00:05:17;;;;;;;7.13;4.43;;;;;;;5.03;56.71;102066.31;2570999;23;20154;-73
2022/01/29 00:06:17;;;;;;;8.47;5.03;;;;;;;5.04;56.56;102062.41;2570761;23;20212;-72
2022/01/29 00:07:18;;;;;;;7.93;4.90;;;;;;;5.04;56.57;102068.72;2570915;23;20166;-72
2022/01/29 00:08:19;;;;;;;6.80;4.67;;;;;;;5.07;56.41;102064.44;2570882;23;20234;-72
2022/01/29 00:09:20;;;;;;;7.05;4.97;;;;;;;4.79;56.40;102006.94;2570990;23;20155;-72
2022/01/29 00:10:21;;;;;;;6.80;4.90;;;;;;;5.09;56.88;102057.44;2570916;23;20152;-72
2022/01/29 00:11:27;;;;;;;8.27;4.73;;;;;;;4.39;56.28;101940.56;2570720;23;20162;-72
2022/01/29 00:12:28;;;;;;;7.32;4.95;;;;;;;4.99;56.67;102040.72;2569853;23;20199;-72
2022/01/29 00:13:29;;;;;;;7.40;4.80;;;;;;;5.07;56.93;102067.19;2570030;23;20625;-71
2022/01/29 00:14:29;;;;;;;9.47;5.17;;;;;;;5.03;56.93;102061.59;2570119;23;20582;-72
2022/01/29 00:15:30;;;;;;;8.23;4.97;;;;;;;4.87;56.98;102058.13;2570968;23;20181;-72
2022/01/29 00:16:30;;;;;;;7.13;4.37;;;;;;;4.88;57.06;102056.19;2582480;23;20170;-72
2022/01/29 00:17:31;;;;;;;7.07;5.00;;;;;;;4.94;57.11;102066.53;2582649;23;20151;-71
2022/01/29 00:18:33;;;;;;;7.37;4.10;;;;;;;4.48;57.26;102015.28;2570882;23;20172;-72
2022/01/29 00:19:38;;;;;;;6.68;4.72;;;;;;;4.85;57.98;102068.69;2570932;23;20202;-72
2022/01/29 00:20:38;;;;;;;7.35;4.28;;;;;;;4.62;58.09;102039.50;2571085;23;20151;-71
2022/01/29 00:21:39;;;;;;;7.20;4.50;;;;;;;4.68;58.23;102063.59;2570669;23;20163;-72
2022/01/29 00:22:40;;;;;;;6.43;4.10;;;;;;;4.37;58.39;102016.94;2570985;23;20172;-72
2022/01/29 00:23:41;;;;;;;7.35;4.38;;;;;;;4.63;58.80;102066.63;2570843;23;20155;-72
2022/01/29 00:24:43;;;;;;;7.53;4.60;;;;;;;4.62;59.05;102066.97;2570897;23;20258;-72
2022/01/29 00:25:44;;;;;;;8.15;4.60;;;;;;;4.53;58.64;102066.34;2570937;23;20146;-71
2022/01/29 00:26:44;;;;;;;8.93;5.33;;;;;;;3.79;58.89;101956.78;2570781;23;20209;-72
2022/01/29 00:27:45;;;;;;;5.77;4.23;;;;;;;4.32;59.00;102030.16;2570804;23;20197;-72
2022/01/29 00:28:46;;;;;;;5.47;4.00;;;;;;;4.62;58.83;102075.19;2569861;23;20168;-72
2022/01/29 00:29:46;;;;;;;6.77;4.00;;;;;;;4.18;59.09;101999.66;2570120;23;20469;-72
2022/01/29 00:30:47;;;;;;;6.23;4.17;;;;;;;4.61;59.33;102071.66;2571109;23;20157;-72
2022/01/29 00:31:49;;;;;;;7.10;4.73;;;;;;;4.52;59.43;102065.53;2570904;23;20154;-72
2022/01/29 00:32:49;;;;;;;6.93;4.70;;;;;;;4.63;58.93;102072.09;2571032;23;20211;-72
2022/01/29 00:33:50;;;;;;;6.37;4.30;;;;;;;3.85;58.91;101950.66;2570717;23;20149;-72
2022/01/29 00:34:50;;;;;;;6.23;4.30;;;;;;;4.62;59.05;102067.75;2570714;23;20604;-72
2022/01/29 00:35:51;;;;;;;6.67;4.47;;;;;;;4.69;58.69;102070.66;2570721;23;20155;-72
2022/01/29 00:36:52;;;;;;;6.33;4.07;;;;;;;4.05;58.55;101976.22;2570897;23;20146;-72
2022/01/29 00:37:52;;;;;;;7.40;4.77;;;;;;;4.65;59.04;102061.56;2569823;23;20190;-72
2022/01/29 00:38:53;;;;;;;6.70;4.60;;;;;;;4.73;58.66;102077.03;2569892;23;20250;-72
2022/01/29 00:39:53;;;;;;;6.83;4.57;;;;;;;4.18;58.66;101980.44;2582557;23;20162;-72
2022/01/29 00:40:54;;;;;;;6.20;4.30;;;;;;;4.79;58.62;102081.09;2570765;23;20180;-72
2022/01/29 00:41:55;;;;;;;6.10;4.07;;;;;;;4.90;58.50;102079.38;2570738;23;20210;-72
2022/01/29 00:42:55;;;;;;;7.27;4.40;;;;;;;4.90;58.18;102086.81;2570676;23;20620;-72
2022/01/29 00:43:56;;;;;;;7.40;4.10;;;;;;;4.86;58.04;102081.25;2570690;23;20158;-72
2022/01/29 00:44:57;;;;;;;6.30;4.17;;;;;;;4.55;58.20;102018.16;2570803;23;20155;-71
2022/01/29 00:45:57;;;;;;;6.57;4.10;;;;;;;5.00;58.14;102075.28;2570763;23;20154;-72
2022/01/29 00:46:58;;;;;;;5.67;3.87;;;;;;;4.85;57.93;102065.94;2570641;23;20414;-71
2022/01/29 00:47:58;;;;;;;5.97;3.90;;;;;;;4.98;58.34;102077.59;2569837;23;20233;-72
2022/01/29 00:48:59;;;;;;;5.10;3.53;;;;;;;4.98;58.31;102091.31;2570061;23;20569;-71
2022/01/29 00:49:59;;;;;;;6.47;4.20;;;;;;;4.98;58.21;102083.09;2570805;23;20248;-72
2022/01/29 00:51:02;;;;;;;5.00;3.73;;;;;;;5.03;58.27;102080.06;2570700;23;20152;-71
2022/01/29 00:52:03;;;;;;;6.75;3.90;;;;;;;5.06;57.52;102080.13;2570837;23;20155;-72
2022/01/29 00:53:04;;;;;;;5.40;3.85;;;;;;;4.45;57.60;101971.25;2570756;23;20233;-72
2022/01/29 00:54:05;;;;;;;6.47;3.97;;;;;;;5.11;57.86;102077.09;2570691;23;20155;-71
2022/01/29 00:55:08;;;;;;;5.90;3.83;;;;;;;5.12;57.47;102086.16;2570741;23;20503;-72
2022/01/29 00:56:10;;;;;;;5.78;3.60;;;;;;;4.99;57.74;102057.19;2570649;23;20156;-72
2022/01/29 00:57:11;;;;;;;5.28;3.50;;;;;;;4.90;57.52;102049.16;2570844;23;20156;-72
2022/01/29 00:58:11;;;;;;;6.20;3.90;;;;;;;4.71;57.58;102010.69;2571049;23;20151;-73
2022/01/29 00:59:12;;;;;;;5.57;3.70;;;;;;;5.26;57.54;102072.69;2570674;23;20182;-72
2022/01/29 01:00:14;;;;;;;6.10;3.63;;;;;;;5.27;57.55;102075.06;2570952;23;20156;-71
2022/01/29 01:01:14;;;;;;;5.40;3.50;;;;;;;5.21;57.63;102075.72;2570720;23;20628;-72
2022/01/29 01:02:15;;;;;;;5.43;3.53;;;;;;;5.25;57.17;102082.91;2570652;23;20562;-72
2022/01/29 01:03:16;;;;;;;5.50;3.53;;;;;;;5.25;57.34;102074.66;2570697;23;20497;-72
2022/01/29 01:04:17;;;;;;;5.20;3.37;;;;;;;5.29;57.43;102080.22;2570702;23;20155;-71
2022/01/29 01:05:17;;;;;;;5.27;3.30;;;;;;;5.28;57.31;102078.63;2570635;23;20517;-71
2022/01/29 01:06:18;;;;;;;5.87;3.53;;;;;;;5.19;57.43;102067.81;2582321;23;20165;-71
2022/01/29 01:07:18;;;;;;;4.97;3.50;;;;;;;4.87;57.23;102000.44;2582233;23;20544;-72
2022/01/29 01:08:19;;;;;;;4.40;3.30;;;;;;;5.39;56.91;102079.66;2569772;23;20289;-72
2022/01/29 01:09:19;;;;;;;5.80;3.20;;;;;;;4.84;57.36;102000.38;2569900;23;20598;-72
2022/01/29 01:10:20;;;;;;;5.00;3.17;;;;;;;5.28;57.20;102070.38;2571000;23;20156;-72
2022/01/29 01:11:20;;;;;;;5.07;3.17;;;;;;;4.65;57.17;101970.94;2582286;23;20154;-72
2022/01/29 01:12:21;;;;;;;5.73;3.50;;;;;;;5.30;57.24;102073.56;2582386;23;20214;-72
2022/01/29 01:13:22;;;;;;;5.00;3.53;;;;;;;5.29;57.56;102074.72;2570964;23;20158;-72
2022/01/29 01:14:24;;;;;;;4.53;3.33;;;;;;;4.61;57.22;101985.75;2570565;23;20660;-72
2022/01/29 01:15:24;;;;;;;5.45;3.60;;;;;;;5.33;57.47;102070.09;2570904;23;20151;-71
2022/01/29 01:16:25;;;;;;;4.43;3.03;;;;;;;5.24;56.74;102064.78;2569798;23;20158;-72
2022/01/29 01:17:25;;;;;;;4.10;2.87;;;;;;;5.34;56.86;102072.47;2570017;23;20234;-72
2022/01/29 01:18:26;;;;;;;5.17;3.10;;;;;;;4.98;57.08;102017.94;2570697;23;20158;-72
2022/01/29 01:19:27;;;;;;;5.70;3.10;;;;;;;4.93;57.20;102009.97;2571018;23;20170;-71
2022/01/29 01:20:28;;;;;;;5.40;3.50;;;;;;;5.38;56.93;102078.06;2570687;23;20151;-72
2022/01/29 01:21:28;;;;;;;4.82;2.97;;;;;;;5.01;56.94;102006.22;2570827;23;20189;-72
2022/01/29 01:22:29;;;;;;;5.23;3.23;;;;;;;5.50;56.47;102081.44;2569649;23;20156;-72
2022/01/29 01:23:30;;;;;;;4.77;3.07;;;;;;;5.26;56.76;102048.75;2569929;23;20648;-72
2022/01/29 01:24:30;;;;;;;4.53;3.13;;;;;;;4.89;56.75;101989.91;2570491;23;20148;-72
2022/01/29 01:25:31;;;;;;;5.17;3.17;;;;;;;5.52;56.76;102079.13;2570544;23;20150;-72
2022/01/29 01:26:31;;;;;;;5.47;3.30;;;;;;;4.72;56.34;101951.06;2570513;23;20572;-72
2022/01/29 01:27:32;;;;;;;4.77;3.10;;;;;;;5.61;56.33;102090.69;2570693;23;20153;-72
2022/01/29 01:28:32;;;;;;;4.80;3.30;;;;;;;5.63;56.35;102090.31;2570522;23;20156;-72
2022/01/29 01:29:33;;;;;;;5.53;3.43;;;;;;;5.57;56.25;102076.09;2569798;23;20169;-73
2022/01/29 01:30:35;;;;;;;4.63;3.03;;;;;;;5.39;55.97;102038.41;2570040;23;20217;-72
2022/01/29 01:31:37;;;;;;;5.70;3.17;;;;;;;5.71;56.05;102090.13;2570635;23;20155;-72
2022/01/29 01:32:38;;;;;;;4.95;3.08;;;;;;;5.64;56.73;102086.44;2569736;23;20212;-72
2022/01/29 01:33:38;;;;;;;5.53;2.60;;;;;;;5.57;56.94;102084.34;2569954;23;20225;-72
2022/01/29 01:34:46;;;;;;;5.67;3.17;;;;;;;5.62;56.27;102058.47;2569743;23;20605;-72
2022/01/29 01:35:51;;;;;;;6.07;3.47;;;;;;;5.76;56.65;102072.50;2569974;23;20130;-72
2022/01/29 01:36:57;;;;;;;5.30;3.40;;;;;;;5.76;56.32;102080.75;2571026;23;20144;-71
2022/01/29 01:38:22;;;;;;;6.47;3.67;;;;;;;5.07;56.63;101979.28;2570789;23;20222;-72
2022/01/29 01:39:22;;;;;;;6.35;3.40;;;;;;;5.21;56.36;101994.06;2570024;23;20169;-72
2022/01/29 01:40:25;;;;;;;6.25;3.35;;;;;;;5.29;56.35;102001.28;2570572;23;20153;-72
2022/01/29 01:41:27;;;;;;;5.95;3.50;;;;;;;5.76;56.24;102078.00;2570598;23;20147;-72
2022/01/29 01:42:28;;;;;;;5.93;3.50;;;;;;;5.81;56.28;102078.53;2570617;23;20496;-71
2022/01/29 01:43:28;;;;;;;5.13;3.57;;;;;;;5.86;55.94;102077.44;2570587;23;20342;-72
2022/01/29 01:44:38;;;;;;;4.47;3.17;;;;;;;5.91;56.34;102071.63;2570626;23;20231;-72
2022/01/29 01:45:38;;;;;;;5.32;3.45;;;;;;;5.87;56.56;102079.84;2570625;23;20592;-72
2022/01/29 01:46:39;;;;;;;5.70;3.70;;;;;;;5.88;56.47;102078.66;2570552;23;20190;-71
2022/01/29 01:47:40;;;;;;;5.63;3.60;;;;;;;5.91;56.26;102085.41;2570681;23;20152;-72
2022/01/29 01:48:40;;;;;;;6.00;3.60;;;;;;;5.89;56.04;102076.72;2570651;23;20229;-72
2022/01/29 01:49:41;;;;;;;5.43;3.47;;;;;;;5.82;56.33;102060.88;2570679;23;20146;-72
2022/01/29 01:50:42;;;;;;;6.93;3.93;;;;;;;5.89;56.25;102079.47;2570547;23;20573;-72
2022/01/29 01:51:43;;;;;;;6.37;4.00;;;;;;;5.91;56.36;102080.69;2570508;23;20152;-72
2022/01/29 01:52:44;;;;;;;5.72;3.70;;;;;;;5.75;56.62;102057.94;2570646;23;20152;-72
2022/01/29 01:53:44;;;;;;;5.83;3.40;;;;;;;5.46;56.03;102031.09;2570534;23;20225;-72
2022/01/29 01:54:45;;;;;;;6.97;3.60;;;;;;;5.94;56.41;102082.69;2569765;23;20326;-72
2022/01/29 01:55:47;;;;;;;4.73;3.50;;;;;;;5.97;55.97;102086.69;2569865;23;20152;-72
2022/01/29 01:56:48;;;;;;;5.05;3.40;;;;;;;5.21;56.43;101963.84;2570536;23;20608;-71
2022/01/29 01:57:48;;;;;;;5.50;3.87;;;;;;;5.80;56.38;102063.19;2570602;23;20505;-72
2022/01/29 01:58:49;;;;;;;5.63;3.43;;;;;;;5.90;56.19;102076.34;2570741;23;20154;-72
2022/01/29 01:59:49;;;;;;;6.67;3.57;;;;;;;5.92;55.79;102074.03;2570615;23;20162;-71
2022/01/29 02:00:50;;;;;;;4.60;3.33;;;;;;;5.95;56.17;102083.50;2569667;23;20159;-71
2022/01/29 02:01:51;;;;;;;5.23;3.47;;;;;;;5.88;56.10;102078.66;2569979;23;20156;-71
2022/01/29 02:02:52;;;;;;;6.03;3.87;;;;;;;5.66;56.12;102042.84;2570586;23;20230;-72
2022/01/29 02:03:52;;;;;;;4.60;3.43;;;;;;;5.89;56.08;102071.22;2570602;23;20230;-72
2022/01/29 02:04:53;;;;;;;4.07;3.10;;;;;;;5.84;55.68;102071.53;2570564;23;20174;-72
2022/01/29 02:05:54;;;;;;;6.23;3.80;;;;;;;5.01;55.94;101953.22;2570545;23;20158;-72
2022/01/29 02:06:54;;;;;;;4.93;3.50;;;;;;;5.22;56.06;102001.16;2569618;23;20210;-71
2022/01/29 02:07:56;;;;;;;5.93;3.73;;;;;;;5.79;56.42;102080.81;2557347;23;20495;-72
2022/01/29 02:08:59;;;;;;;5.10;3.75;;;;;;;5.81;56.35;102069.50;2569780;23;20631;-71
2022/01/29 02:10:00;;;;;;;7.45;4.07;;;;;;;5.80;56.67;102085.19;2582192;23;20166;-71
2022/01/29 02:11:05;;;;;;;5.67;3.80;;;;;;;5.48;56.13;102017.00;2582385;23;20151;-72
2022/01/29 02:12:08;;;;;;;6.63;3.65;;;;;;;5.83;55.94;102067.16;2570367;23;20204;-72
2022/01/29 02:13:10;;;;;;;5.30;3.50;;;;;;;5.85;56.10;102073.09;2570517;23;20181;-71
2022/01/29 02:14:10;;;;;;;5.82;3.47;;;;;;;5.88;56.27;102075.91;2570543;23;20158;-72
2022/01/29 02:15:12;;;;;;;8.37;3.50;;;;;;;5.84;56.21;102071.53;2570483;23;20151;-71
2022/01/29 02:16:12;;;;;;;6.00;3.35;;;;;;;5.75;55.63;102051.66;2570488;23;20159;-71
2022/01/29 02:17:13;;;;;;;6.70;3.77;;;;;;;5.90;55.95;102072.81;2570520;23;20152;-72
2022/01/29 02:18:15;;;;;;;5.20;3.40;;;;;;;5.91;56.02;102071.63;2570525;23;20154;-72
2022/01/29 02:19:16;;;;;;;5.95;3.67;;;;;;;5.15;55.68;101946.06;2571296;23;20497;-72
2022/01/29 02:20:20;;;;;;;5.70;3.45;;;;;;;5.91;55.85;102071.63;2571306;23;20151;-71
2022/01/29 02:21:21;;;;;;;6.25;3.55;;;;;;;5.68;55.71;102044.06;2571258;23;20154;-72
2022/01/29 02:22:22;;;;;;;4.60;3.50;;;;;;;5.92;56.12;102070.47;2571191;23;20155;-72
2022/01/29 02:23:22;;;;;;;5.93;3.40;;;;;;;5.56;56.05;102021.44;2571274;23;20600;-71
2022/01/29 02:24:23;;;;;;;4.77;3.70;;;;;;;5.84;55.67;102058.53;2571288;23;20147;-71
2022/01/29 02:25:31;;;;;;;5.78;4.10;;;;;;;5.98;56.06;102071.75;2571352;23;20152;-72
2022/01/29 02:26:31;;;;;;;6.53;3.80;;;;;;;5.62;55.71;102008.97;2571096;23;20151;-72
2022/01/29 02:27:32;;;;;;;4.67;3.30;;;;;;;5.99;55.79;102070.59;2571177;23;20234;-72
2022/01/29 02:28:33;;;;;;;6.40;3.70;;;;;;;5.79;55.58;102031.31;2571314;23;20157;-71
2022/01/29 02:29:34;;;;;;;5.63;3.53;;;;;;;6.06;55.47;102068.75;2571256;23;20178;-72
2022/01/29 02:30:38;;;;;;;5.18;3.58;;;;;;;5.84;55.48;102033.00;2571242;23;20601;-72
2022/01/29 02:31:52;;;;;;;5.65;3.70;;;;;;;5.40;55.67;101957.50;2570447;23;20157;-72
2022/01/29 02:32:53;;;;;;;5.85;3.70;;;;;;;6.13;55.25;102063.38;2570833;23;20610;-72
2022/01/29 02:33:53;;;;;;;4.80;3.23;;;;;;;6.02;55.62;102062.41;2571256;23;20558;-72
2022/01/29 02:34:54;;;;;;;6.40;3.43;;;;;;;6.09;55.41;102069.97;2571312;23;20155;-72
2022/01/29 02:35:55;;;;;;;6.03;3.47;;;;;;;6.05;55.23;102058.91;2571106;23;20234;-72
2022/01/29 02:36:56;;;;;;;5.43;3.80;;;;;;;6.00;55.63;102064.72;2571259;23;20145;-72
2022/01/29 02:37:58;;;;;;;5.50;3.87;;;;;;;5.98;56.00;102064.31;2571345;23;20176;-72
2022/01/29 02:38:59;;;;;;;5.93;3.85;;;;;;;5.64;56.07;102020.44;2582894;23;20154;-72
2022/01/29 02:40:00;;;;;;;4.80;3.33;;;;;;;5.65;55.92;102030.25;2582945;23;20160;-72
2022/01/29 02:41:02;;;;;;;7.50;3.77;;;;;;;5.45;55.92;102007.50;2571285;23;20154;-72
2022/01/29 02:42:03;;;;;;;4.93;3.72;;;;;;;5.86;56.04;102059.00;2571237;23;20158;-72
2022/01/29 02:43:15;;;;;;;6.20;4.10;;;;;;;5.89;55.95;102062.97;2570301;23;20237;-72
2022/01/29 02:44:21;;;;;;;6.00;3.60;;;;;;;5.87;55.08;102054.25;2572730;23;20422;-72
2022/01/29 02:45:21;;;;;;;6.07;3.70;;;;;;;5.88;55.79;102055.84;2582310;23;20596;-71
2022/01/29 02:46:30;;;;;;;6.37;3.90;;;;;;;5.84;55.48;102053.03;2570300;23;20525;-72
2022/01/29 02:47:33;;;;;;;4.70;3.30;;;;;;;5.79;55.61;102056.06;2571948;23;20563;-72
2022/01/29 02:48:34;;;;;;;6.43;3.70;;;;;;;5.76;55.62;102056.00;2582653;23;20150;-71
2022/01/29 02:49:35;;;;;;;5.55;3.58;;;;;;;5.10;56.17;101964.78;2571204;23;20147;-72
2022/01/29 02:50:36;;;;;;;6.00;3.87;;;;;;;5.60;56.10;102053.34;2571127;23;20175;-71
2022/01/29 02:51:46;;;;;;;6.18;3.90;;;;;;;4.55;56.04;101894.63;2571121;23;20146;-72
2022/01/29 02:52:46;;;;;;;6.68;4.00;;;;;;;5.46;56.40;102046.78;2571180;23;20150;-72
2022/01/29 02:53:48;;;;;;;5.53;3.70;;;;;;;5.43;56.43;102053.03;2571384;23;20147;-71
2022/01/29 02:54:48;;;;;;;5.70;3.70;;;;;;;5.36;56.63;102059.16;2582834;23;20163;-72
2022/01/29 02:55:49;;;;;;;5.33;3.50;;;;;;;5.32;56.49;102047.31;2583094;23;20152;-71
2022/01/29 02:56:50;;;;;;;7.33;3.90;;;;;;;5.11;56.33;102022.13;2571294;23;20152;-71
2022/01/29 02:57:51;;;;;;;5.73;3.93;;;;;;;5.28;56.30;102042.91;2571092;23;20149;-72
2022/01/29 02:58:51;;;;;;;6.13;3.50;;;;;;;5.26;56.84;102042.44;2571321;23;20153;-71
2022/01/29 02:59:52;;;;;;;5.70;3.73;;;;;;;5.16;56.73;102040.28;2570321;23;20155;-71
2022/01/29 03:00:53;;;;;;;5.33;3.70;;;;;;;5.10;56.84;102039.78;2570434;23;20473;-72
2022/01/29 03:01:53;;;;;;;6.53;4.00;;;;;;;5.09;56.71;102040.16;2571103;23;20232;-71
2022/01/29 03:02:54;;;;;;;5.77;3.90;;;;;;;5.08;57.15;102042.09;2570243;23;20157;-71
2022/01/29 03:03:55;;;;;;;6.20;4.00;;;;;;;4.98;57.24;102039.91;2570397;23;20213;-71
2022/01/29 03:04:57;;;;;;;5.32;4.10;;;;;;;4.39;57.60;101967.19;2571181;23;20154;-71
2022/01/29 03:05:58;;;;;;;6.47;4.20;;;;;;;4.87;57.64;102049.09;2571046;23;20497;-72
2022/01/29 03:06:58;;;;;;;6.60;4.30;;;;;;;4.76;57.60;102018.63;2571029;23;20178;-72
2022/01/29 03:07:59;;;;;;;6.13;4.10;;;;;;;4.81;58.16;102025.78;2571253;23;20153;-71
2022/01/29 03:09:00;;;;;;;6.40;4.20;;;;;;;4.18;58.44;101940.09;2570254;23;20166;-71
2022/01/29 03:10:01;;;;;;;7.78;4.15;;;;;;;4.72;58.14;102027.97;2570324;23;20233;-72
2022/01/29 03:11:01;;;;;;;5.70;4.13;;;;;;;4.67;58.09;102031.00;2571160;23;20154;-70
2022/01/29 03:12:02;;;;;;;6.30;3.97;;;;;;;4.27;58.41;101970.06;2570865;23;20228;-69
2022/01/29 03:13:03;;;;;;;6.23;4.53;;;;;;;3.62;58.83;101872.13;2571484;23;20573;-69
2022/01/29 03:14:04;;;;;;;6.10;4.68;;;;;;;4.69;58.87;102023.19;2571062;23;20176;-69
2022/01/29 03:15:07;;;;;;;5.63;4.32;;;;;;;4.65;58.74;102033.28;2571036;23;20157;-70
2022/01/29 03:16:07;;;;;;;5.82;4.22;;;;;;;4.52;59.31;102034.56;2571068;23;20176;-70
2022/01/29 03:17:08;;;;;;;6.00;4.73;;;;;;;3.65;59.28;101912.56;2571194;23;20149;-71
2022/01/29 03:18:08;;;;;;;6.20;4.60;;;;;;;4.38;59.64;102040.53;2571047;23;20157;-72
2022/01/29 03:19:09;;;;;;;8.80;4.83;;;;;;;4.33;59.98;102040.81;2571121;23;20153;-71
2022/01/29 03:20:10;;;;;;;7.07;4.90;;;;;;;3.71;60.27;101942.09;2571106;23;20181;-71
2022/01/29 03:21:11;;;;;;;8.20;5.00;;;;;;;4.29;60.25;102037.16;2571063;23;20156;-72
2022/01/29 03:22:11;;;;;;;7.50;5.27;;;;;;;3.50;59.83;101916.09;2571005;23;20153;-71
2022/01/29 03:23:13;;;;;;;6.57;4.97;;;;;;;4.20;60.53;102041.25;2571061;23;20174;-71
2022/01/29 03:24:14;;;;;;;8.15;5.47;;;;;;;3.91;60.31;101993.09;2571055;23;20181;-71
2022/01/29 03:25:16;;;;;;;10.13;5.20;;;;;;;4.07;60.39;102017.81;2571001;23;20596;-71
2022/01/29 03:26:16;;;;;;;7.95;5.55;;;;;;;4.12;60.49;102040.28;2571051;23;20152;-72
2022/01/29 03:27:17;;;;;;;8.03;5.27;;;;;;;4.16;60.65;102037.63;2571277;23;20203;-71
2022/01/29 03:28:17;;;;;;;9.07;5.40;;;;;;;4.15;60.84;102036.03;2571087;23;20230;-71
2022/01/29 03:29:18;;;;;;;7.83;5.57;;;;;;;4.01;60.99;102020.00;2571200;23;20629;-71
2022/01/29 03:30:19;;;;;;;7.70;5.50;;;;;;;4.14;61.29;102032.50;2570827;23;20154;-72
2022/01/29 03:31:20;;;;;;;8.57;5.20;;;;;;;4.17;60.97;102041.97;2571159;23;20194;-71
2022/01/29 03:32:20;;;;;;;6.63;5.18;;;;;;;4.09;61.00;102040.97;2570149;23;20215;-71
2022/01/29 03:33:22;;;;;;;6.47;5.43;;;;;;;4.07;61.39;102042.50;2570174;23;20156;-71
2022/01/29 03:34:22;;;;;;;8.77;5.65;;;;;;;3.59;61.09;101966.84;2582713;23;20198;-71
2022/01/29 03:35:23;;;;;;;9.07;5.27;;;;;;;4.20;60.98;102044.00;2570988;23;20148;-71
2022/01/29 03:36:23;;;;;;;7.40;5.63;;;;;;;3.70;61.29;101962.41;2571102;23;20149;-71
2022/01/29 03:37:24;;;;;;;8.77;5.43;;;;;;;4.19;61.43;102051.44;2571056;23;20179;-71
2022/01/29 03:38:25;;;;;;;8.97;5.50;;;;;;;4.11;61.17;102041.41;2570998;23;20551;-72
2022/01/29 03:39:27;;;;;;;7.93;5.87;;;;;;;4.18;61.25;102049.84;2571216;23;20212;-71
2022/01/29 03:40:29;;;;;;;7.88;5.35;;;;;;;4.19;60.61;102053.38;2570993;23;20647;-72
2022/01/29 03:41:30;;;;;;;8.98;6.03;;;;;;;4.16;60.67;102048.59;2570101;23;20164;-71
2022/01/29 03:42:35;;;;;;;9.25;5.30;;;;;;;4.23;60.79;102048.75;2570248;23;20156;-71
2022/01/29 03:43:43;;;;;;;7.10;5.40;;;;;;;3.49;60.91;101950.13;2571140;23;20129;-72
2022/01/29 03:44:44;;;;;;;7.32;5.30;;;;;;;4.21;60.99;102053.81;2571195;23;20161;-71
2022/01/29 03:45:44;;;;;;;7.17;5.50;;;;;;;4.19;61.26;102051.44;2570949;23;20201;-71
2022/01/29 03:46:45;;;;;;;7.90;5.20;;;;;;;4.00;60.87;102029.38;2570829;23;20422;-71
2022/01/29 03:47:45;;;;;;;6.00;5.03;;;;;;;4.27;60.77;102050.44;2571145;23;20145;-71
2022/01/29 03:48:46;;;;;;;8.13;5.40;;;;;;;3.58;60.82;101957.03;2570995;23;20180;-71
2022/01/29 03:49:46;;;;;;;8.03;5.50;;;;;;;3.72;60.83;101986.75;2570803;23;20181;-71
2022/01/29 03:50:47;;;;;;;6.67;4.90;;;;;;;4.24;60.97;102062.13;2570037;23;20178;-72
2022/01/29 03:51:48;;;;;;;8.50;5.37;;;;;;;4.29;60.22;102064.63;2570281;23;20145;-72
2022/01/29 03:52:48;;;;;;;6.87;5.40;;;;;;;3.82;60.54;101986.22;2570962;23;20654;-71
2022/01/29 03:53:49;;;;;;;8.00;5.20;;;;;;;3.89;60.16;102003.66;2570826;23;20166;-72
2022/01/29 03:54:49;;;;;;;6.27;5.10;;;;;;;4.36;60.61;102074.97;2569949;23;20165;-71
2022/01/29 03:55:50;;;;;;;7.53;5.03;;;;;;;4.41;59.98;102085.69;2570177;23;20153;-72
2022/01/29 03:56:51;;;;;;;7.50;5.20;;;;;;;4.42;60.32;102088.03;2571057;23;20591;-71
2022/01/29 03:57:51;;;;;;;6.30;4.83;;;;;;;4.43;60.34;102092.41;2570913;23;20544;-72
2022/01/29 03:58:52;;;;;;;8.77;5.53;;;;;;;4.45;60.24;102094.78;2570905;23;20468;-71
2022/01/29 03:59:52;;;;;;;7.57;4.90;;;;;;;4.47;59.93;102096.00;2570917;23;20153;-72
2022/01/29 04:00:53;;;;;;;8.70;5.53;;;;;;;4.50;59.87;102094.50;2570944;23;20635;-72
2022/01/29 04:01:53;;;;;;;6.73;5.03;;;;;;;4.53;59.39;102102.03;2570867;23;20202;-72
2022/01/29 04:02:54;;;;;;;8.63;5.10;;;;;;;4.56;59.72;102101.34;2570826;23;20157;-72
2022/01/29 04:03:56;;;;;;;6.80;5.13;;;;;;;4.57;59.82;102098.22;2570844;23;20154;-72
2022/01/29 04:04:56;;;;;;;7.80;5.75;;;;;;;3.82;59.48;101976.06;2570911;23;20149;-71
2022/01/29 04:05:57;;;;;;;8.10;5.70;;;;;;;3.84;59.71;101986.69;2570873;23;20234;-72
2022/01/29 04:07:04;;;;;;;7.57;5.37;;;;;;;4.01;59.29;101992.56;2570900;23;20183;-72
2022/01/29 04:08:12;;;;;;;7.07;5.40;;;;;;;4.68;58.59;102096.53;2570939;23;20135;-71
2022/01/29 04:09:13;;;;;;;8.20;5.20;;;;;;;3.99;59.69;101994.88;2570991;23;20142;-71
2022/01/29 04:10:13;;;;;;;7.87;5.50;;;;;;;4.56;59.08;102082.13;2569941;23;20244;-72
2022/01/29 04:11:15;;;;;;;8.97;5.10;;;;;;;3.93;58.49;101970.81;2570134;23;20151;-71
2022/01/29 04:12:16;;;;;;;8.52;5.10;;;;;;;4.18;58.48;102010.63;2570692;23;20216;-71
2022/01/29 04:13:21;;;;;;;7.88;5.30;;;;;;;4.46;58.77;102056.00;2570821;23;20496;-72
2022/01/29 04:14:22;;;;;;;7.85;5.00;;;;;;;4.75;58.37;102102.19;2570743;23;20159;-72
2022/01/29 04:15:22;;;;;;;5.55;4.97;;;;;;;4.30;58.60;102026.97;2570703;23;20151;-72
2022/01/29 04:16:23;;;;;;;6.70;4.90;;;;;;;4.69;58.69;102092.63;2570007;23;20659;-72
2022/01/29 04:17:23;;;;;;;7.27;5.20;;;;;;;4.08;58.11;102011.97;2570123;23;20525;-72
2022/01/29 04:18:24;;;;;;;7.23;4.77;;;;;;;4.08;58.44;101997.44;2570870;23;20154;-72
2022/01/29 04:19:24;;;;;;;7.73;4.97;;;;;;;4.63;58.16;102077.59;2570963;23;20199;-72
2022/01/29 04:20:25;;;;;;;6.70;5.00;;;;;;;4.74;57.97;102102.53;2570870;23;20172;-72
2022/01/29 04:21:26;;;;;;;7.97;5.20;;;;;;;4.30;58.55;102044.25;2570846;23;20148;-72
2022/01/29 04:22:26;;;;;;;6.43;4.90;;;;;;;3.89;58.73;102003.66;2569871;23;20191;-72
2022/01/29 04:23:27;;;;;;;7.37;5.07;;;;;;;4.04;59.07;102011.06;2570135;23;20155;-72
2022/01/29 04:24:27;;;;;;;6.43;5.13;;;;;;;4.12;58.65;102029.31;2571140;23;20147;-72
2022/01/29 04:25:28;;;;;;;9.17;5.20;;;;;;;4.64;59.08;102111.31;2570782;23;20554;-72
2022/01/29 04:26:33;;;;;;;6.80;5.50;;;;;;;4.56;58.60;102098.59;2570688;23;20174;-71
2022/01/29 04:27:41;;;;;;;6.88;5.45;;;;;;;4.60;58.42;102110.44;2570879;23;20138;-71
2022/01/29 04:28:44;;;;;;;6.93;5.13;;;;;;;4.50;58.66;102092.56;2570978;23;20134;-71
2022/01/29 04:30:00;;;;;;;8.60;5.50;;;;;;;4.02;59.19;102029.84;2570729;23;20232;-72
2022/01/29 04:31:06;;;;;;;6.15;5.05;;;;;;;4.05;58.58;102039.31;2570872;23;20132;-71
2022/01/29 04:32:15;;;;;;;7.28;5.10;;;;;;;4.55;58.97;102114.25;2582459;23;20180;-72
2022/01/29 04:34:18;;;;;;;7.47;5.53;;;;;;;4.47;59.38;102111.72;2570759;23;20214;-71
2022/01/29 04:35:19;;;;;;;6.60;5.23;;;;;;;3.75;59.36;102000.53;2569920;23;20160;-72
2022/01/29 04:36:20;;;;;;;6.22;5.28;;;;;;;3.52;59.49;101963.13;2570059;23;20149;-71
2022/01/29 04:37:21;;;;;;;6.13;4.80;;;;;;;4.46;58.14;102118.34;2570697;23;20168;-72
2022/01/29 04:38:21;;;;;;;7.77;5.30;;;;;;;3.75;59.03;102025.22;2570824;23;20150;-72
2022/01/29 04:39:22;;;;;;;7.33;4.77;;;;;;;4.43;59.50;102117.13;2570911;23;20496;-72
2022/01/29 04:40:22;;;;;;;6.73;5.23;;;;;;;4.45;59.14;102114.81;2570769;23;20148;-72
2022/01/29 04:41:23;;;;;;;7.87;4.90;;;;;;;4.46;58.96;102113.66;2570790;23;20149;-71
2022/01/29 04:42:24;;;;;;;6.33;5.30;;;;;;;4.43;58.80;102113.56;2570291;23;20161;-71
2022/01/29 04:43:24;;;;;;;6.33;5.20;;;;;;;4.39;59.99;102116.22;2570707;23;20467;-71
2022/01/29 04:44:25;;;;;;;11.30;8.83;;;;;;;4.44;59.01;102118.69;2569873;23;20218;-72
2022/01/29 04:45:25;;;;;;;10.77;8.53;;;;;;;3.97;58.81;102038.34;2570119;23;20149;-72
2022/01/29 04:46:26;;;;;;;16.90;12.87;;;;;;;4.44;59.52;102107.72;2570677;23;20149;-71
2022/01/29 04:47:28;;;;;;;8.20;6.27;;;;;;;4.24;59.72;102080.53;2570756;23;20153;-71
2022/01/29 04:48:28;;;;;;;8.13;5.75;;;;;;;4.42;59.80;102118.25;2570788;23;20211;-72
2022/01/29 04:49:29;;;;;;;8.50;6.40;;;;;;;4.41;59.51;102116.66;2570746;23;20601;-71
2022/01/29 04:50:29;;;;;;;8.60;6.10;;;;;;;4.43;59.90;102119.88;2570705;23;20159;-72